createdAt,value
2022-11-13T00:04:52.619Z,88.82
2022-11-13T00:10:12.888Z,88.30
2022-11-13T00:15:33.160Z,87.16
2022-11-13T00:20:53.254Z,86.15
2022-11-13T00:26:16.518Z,87.09
2022-11-13T00:31:36.556Z,87.42
2022-11-13T00:36:56.944Z,86.92
2022-11-13T00:42:17.018Z,85.95
2022-11-13T00:47:37.206Z,85.76
2022-11-13T00:52:57.397Z,86.11
2022-11-13T00:58:18.512Z,85.62
2022-11-13T01:03:38.849Z,85.23
2022-11-13T01:08:59.879Z,85.94
2022-11-13T01:14:20.079Z,85.99
2022-11-13T01:19:40.436Z,85.99
2022-11-13T01:25:00.539Z,87.27
2022-11-13T01:30:20.470Z,86.41
2022-11-13T01:35:40.496Z,86.93
2022-11-13T01:41:00.672Z,86.81
2022-11-13T01:46:31.475Z,86.43
2022-11-13T01:51:54.806Z,86.74
2022-11-13T01:57:16.003Z,85.41
2022-11-13T02:02:36.653Z,85.48
2022-11-13T02:07:56.725Z,85.72
2022-11-13T02:13:17.174Z,85.19
2022-11-13T02:18:38.512Z,84.72
2022-11-13T02:24:36.816Z,86.04
2022-11-13T02:29:58.024Z,84.88
2022-11-13T02:35:33.022Z,85.18
2022-11-13T02:40:53.296Z,84.77
2022-11-13T02:46:13.803Z,85.08
2022-11-13T02:51:33.747Z,85.74
2022-11-13T02:56:53.635Z,86.05
2022-11-13T03:02:13.637Z,85.60
2022-11-13T03:07:33.618Z,86.44
2022-11-13T03:12:54.061Z,85.23
2022-11-13T03:18:14.428Z,86.15
2022-11-13T03:23:34.865Z,87.21
2022-11-13T03:28:55.361Z,88.04
2022-11-13T03:34:15.645Z,86.00
2022-11-13T03:39:35.886Z,87.52
2022-11-13T03:44:55.992Z,87.35
2022-11-13T03:50:16.239Z,87.69
2022-11-13T03:55:36.719Z,87.88
2022-11-13T04:00:56.788Z,87.99
2022-11-13T04:06:17.501Z,86.62
2022-11-13T04:11:37.448Z,85.69
2022-11-13T04:16:57.588Z,83.88
2022-11-13T04:22:17.808Z,83.03
2022-11-13T04:27:38.131Z,83.49
2022-11-13T04:32:58.334Z,83.63
2022-11-13T04:38:18.733Z,83.31
2022-11-13T04:43:38.872Z,84.25
2022-11-13T04:48:59.225Z,85.68
2022-11-13T04:54:21.999Z,84.51
2022-11-13T04:59:44.379Z,84.25
2022-11-13T05:05:08.190Z,85.10
2022-11-13T05:10:28.503Z,84.76
2022-11-13T05:15:48.742Z,85.70
2022-11-13T05:21:09.589Z,85.10
2022-11-13T05:26:29.803Z,86.43
2022-11-13T05:31:50.123Z,85.28
2022-11-13T05:37:10.430Z,86.54
2022-11-13T05:42:30.591Z,85.88
2022-11-13T05:47:50.934Z,87.14
2022-11-13T05:53:11.116Z,86.65
2022-11-13T05:58:31.514Z,87.55
2022-11-13T06:03:52.380Z,88.00
2022-11-13T06:09:14.640Z,86.56
2022-11-13T06:14:34.886Z,85.65
2022-11-13T06:19:55.139Z,85.83
2022-11-13T06:25:15.352Z,85.82
2022-11-13T06:30:35.522Z,86.68
2022-11-13T06:35:55.453Z,86.31
2022-11-13T06:41:17.687Z,86.13
2022-11-13T06:46:37.568Z,86.17
2022-11-13T06:51:57.766Z,86.14
2022-11-13T06:57:18.047Z,84.84
2022-11-13T07:02:37.992Z,84.60
2022-11-13T07:07:58.168Z,85.39
2022-11-13T07:13:18.372Z,85.65
2022-11-13T07:18:38.798Z,85.60
2022-11-13T07:23:58.823Z,84.33
2022-11-13T07:29:19.065Z,84.98
2022-11-13T07:34:39.242Z,84.56
2022-11-13T07:39:59.475Z,84.77
2022-11-13T07:45:19.724Z,84.63
2022-11-13T07:50:40.151Z,84.70
2022-11-13T07:56:02.183Z,84.28
2022-11-13T08:01:22.708Z,84.46
2022-11-13T08:06:42.640Z,84.19
2022-11-13T08:12:02.926Z,84.39
2022-11-13T08:17:23.101Z,84.41
2022-11-13T08:22:43.408Z,84.03
2022-11-13T08:28:05.546Z,83.88
2022-11-13T08:33:27.879Z,84.30
2022-11-13T08:38:48.327Z,83.34
2022-11-13T08:44:08.835Z,82.90
2022-11-13T08:49:28.822Z,83.57
2022-11-13T08:54:48.756Z,82.79
2022-11-13T09:00:09.535Z,82.60
2022-11-13T09:05:29.615Z,82.69
2022-11-13T09:10:49.801Z,82.41
2022-11-13T09:16:10.179Z,83.24
2022-11-13T09:21:30.516Z,82.29
2022-11-13T09:26:50.820Z,82.53
2022-11-13T09:32:11.044Z,83.21
2022-11-13T09:37:32.620Z,83.40
2022-11-13T09:42:52.654Z,83.03
2022-11-13T09:48:26.732Z,83.13
2022-11-13T09:53:46.932Z,83.61
2022-11-13T09:59:20.767Z,82.68
2022-11-13T10:04:58.274Z,83.02
2022-11-13T10:11:00.336Z,82.35
2022-11-13T10:16:40.683Z,81.99
2022-11-13T10:22:48.475Z,81.96
2022-11-13T10:28:48.292Z,82.46
2022-11-13T10:33:57.342Z,81.50
2022-11-13T10:39:17.634Z,80.86
2022-11-13T10:44:37.908Z,80.83
2022-11-13T10:50:09.906Z,80.42
2022-11-13T10:55:39.680Z,79.64
2022-11-13T11:00:59.738Z,79.34
2022-11-13T11:06:56.318Z,79.41
2022-11-13T11:12:15.889Z,78.94
2022-11-13T11:17:41.463Z,79.71
2022-11-13T11:23:18.437Z,79.00
2022-11-13T11:29:06.187Z,78.37
2022-11-13T11:34:39.020Z,79.10
2022-11-13T11:40:14.756Z,79.44
2022-11-13T11:45:53.873Z,79.00
2022-11-13T11:51:32.679Z,78.52
2022-11-13T11:56:58.221Z,77.97
2022-11-13T12:02:27.374Z,78.23
2022-11-13T12:08:05.889Z,77.76
2022-11-13T12:13:42.986Z,77.80
2022-11-13T12:19:06.274Z,77.59
2022-11-13T12:24:26.219Z,77.51
2022-11-13T12:29:55.462Z,78.01
2022-11-13T12:35:20.964Z,77.84
2022-11-13T12:40:56.197Z,77.99
2022-11-13T12:46:16.734Z,78.10
2022-11-13T12:51:41.081Z,78.10
2022-11-13T12:57:13.406Z,78.37
2022-11-13T13:03:11.515Z,78.81
2022-11-13T13:08:41.772Z,78.95
2022-11-13T13:14:31.364Z,78.94
2022-11-13T13:20:24.529Z,79.40
2022-11-13T13:25:44.792Z,79.06
2022-11-13T13:31:08.235Z,79.07
2022-11-13T13:36:44.576Z,79.10
2022-11-13T13:42:36.807Z,79.42
2022-11-13T13:47:57.569Z,79.79
2022-11-13T13:53:26.924Z,80.08
2022-11-13T13:58:47.493Z,80.47
2022-11-13T14:04:22.391Z,79.97
2022-11-13T14:09:42.719Z,80.84
2022-11-13T14:15:23.669Z,80.77
2022-11-13T14:20:49.112Z,81.25
2022-11-13T14:26:11.817Z,81.17
2022-11-13T14:31:34.586Z,81.28
2022-11-13T14:36:54.678Z,81.81
2022-11-13T14:42:21.826Z,81.60
2022-11-13T14:47:42.618Z,82.27
2022-11-13T14:53:09.980Z,82.36
2022-11-13T14:58:32.543Z,82.49
2022-11-13T15:03:52.963Z,82.21
2022-11-13T15:09:15.923Z,82.41
2022-11-13T15:14:37.507Z,82.69
2022-11-13T15:19:57.502Z,83.20
2022-11-13T15:25:21.765Z,82.93
2022-11-13T15:30:42.304Z,83.75
2022-11-13T15:36:02.513Z,83.47
2022-11-13T15:41:24.812Z,84.12
2022-11-13T15:46:45.412Z,84.18
2022-11-13T15:52:05.382Z,84.40
2022-11-13T15:57:27.760Z,84.29
2022-11-13T16:02:51.839Z,84.77
2022-11-13T16:08:13.841Z,84.76
2022-11-13T16:13:34.200Z,85.26
2022-11-13T16:18:59.839Z,85.41
2022-11-13T16:24:24.068Z,85.95
2022-11-13T16:29:44.815Z,86.32
2022-11-13T16:35:05.488Z,86.52
2022-11-13T16:40:26.597Z,86.56
2022-11-13T16:45:46.669Z,87.28
2022-11-13T16:51:06.754Z,87.31
2022-11-13T16:56:29.192Z,87.79
2022-11-13T17:01:54.479Z,88.09
2022-11-13T17:07:15.396Z,88.80
2022-11-13T17:12:35.597Z,89.40
2022-11-13T17:17:59.838Z,89.69
2022-11-13T17:23:19.798Z,89.08
2022-11-13T17:28:40.370Z,89.35
2022-11-13T17:34:00.828Z,89.49
2022-11-13T17:39:21.696Z,89.33
2022-11-13T17:44:41.766Z,89.96
2022-11-13T17:50:07.163Z,89.91
2022-11-13T17:55:27.553Z,90.09
2022-11-13T18:00:47.908Z,90.25
2022-11-13T18:06:12.853Z,89.77
2022-11-13T18:11:34.018Z,90.03
2022-11-13T18:16:54.178Z,90.66
2022-11-13T18:22:14.951Z,90.47
2022-11-13T18:27:36.514Z,90.60
2022-11-13T18:32:56.883Z,90.96
2022-11-13T18:38:17.087Z,90.55
2022-11-13T18:43:37.803Z,90.18
2022-11-13T18:48:59.165Z,90.08
2022-11-13T18:54:20.474Z,91.28
2022-11-13T18:59:40.961Z,90.56
2022-11-13T19:05:01.102Z,90.72
2022-11-13T19:10:21.322Z,89.96
2022-11-13T19:15:41.580Z,89.91
2022-11-13T19:21:21.709Z,89.69
2022-11-13T19:26:42.356Z,89.19
2022-11-13T19:32:02.368Z,89.14
2022-11-13T19:37:22.447Z,88.94
2022-11-13T19:42:42.833Z,88.80
2022-11-13T19:48:02.780Z,89.08
2022-11-13T19:53:22.766Z,89.45
2022-11-13T19:58:44.460Z,89.48
2022-11-13T20:04:05.599Z,89.06
2022-11-13T20:09:25.897Z,89.46
2022-11-13T20:14:46.088Z,88.97
2022-11-13T20:20:06.808Z,89.19
2022-11-13T20:25:28.283Z,89.48
2022-11-13T20:30:48.339Z,88.92
2022-11-13T20:36:08.667Z,88.85
2022-11-13T20:41:28.799Z,89.04
2022-11-13T20:46:49.068Z,89.43
2022-11-13T20:52:09.781Z,88.81
2022-11-13T20:57:29.955Z,88.95
2022-11-13T21:02:53.214Z,88.49
2022-11-13T21:08:13.225Z,88.71
2022-11-13T21:13:34.485Z,88.35
2022-11-13T21:18:58.576Z,87.93
2022-11-13T21:24:18.650Z,87.63
2022-11-13T21:29:39.072Z,87.99
2022-11-13T21:34:59.350Z,87.33
2022-11-13T21:40:19.605Z,87.36
2022-11-13T21:45:39.931Z,86.76
2022-11-13T21:51:00.159Z,87.88
2022-11-13T21:56:20.534Z,86.97
2022-11-13T22:01:40.708Z,86.78
2022-11-13T22:07:00.916Z,85.87
2022-11-13T22:12:24.090Z,86.02
2022-11-13T22:17:45.087Z,86.03
2022-11-13T22:23:05.834Z,85.96
2022-11-13T22:28:25.749Z,86.32
2022-11-13T22:33:48.951Z,86.56
2022-11-13T22:39:10.861Z,86.20
2022-11-13T22:44:45.748Z,86.02
2022-11-13T22:50:11.417Z,85.66
2022-11-13T22:55:31.428Z,85.44
2022-11-13T23:00:51.792Z,86.14
2022-11-13T23:06:13.018Z,86.04
2022-11-13T23:11:37.850Z,85.85
2022-11-13T23:16:57.826Z,85.37
2022-11-13T23:22:17.851Z,85.50
2022-11-13T23:27:38.251Z,85.84
2022-11-13T23:32:58.553Z,85.63
2022-11-13T23:38:18.771Z,85.54
2022-11-13T23:49:18.730Z,85.16
2022-11-13T23:54:38.908Z,85.15
2022-11-13T23:59:58.832Z,84.99
